createdAt,value
2023-03-22T00:02:18.773Z,94623.00
2023-03-22T00:06:18.764Z,94621.00
2023-03-22T00:10:18.711Z,94617.00
2023-03-22T00:14:18.783Z,94615.00
2023-03-22T00:18:18.844Z,94617.00
2023-03-22T00:22:18.879Z,94619.00
2023-03-22T00:26:18.978Z,94615.00
2023-03-22T00:30:19.057Z,94617.00
2023-03-22T00:34:19.067Z,94615.00
2023-03-22T00:38:20.562Z,94615.00
2023-03-22T00:42:19.120Z,94613.00
2023-03-22T00:46:19.151Z,94615.00
2023-03-22T00:50:19.023Z,94603.00
2023-03-22T00:54:19.110Z,94599.00
2023-03-22T00:58:18.997Z,94598.00
2023-03-22T01:02:18.946Z,94601.00
2023-03-22T01:06:18.907Z,94599.00
2023-03-22T01:10:18.917Z,94596.00
2023-03-22T01:14:18.776Z,94592.00
2023-03-22T01:18:18.752Z,94594.00
2023-03-22T01:22:18.808Z,94594.00
2023-03-22T01:26:19.409Z,94588.00
2023-03-22T01:30:19.070Z,94588.00
2023-03-22T01:34:18.633Z,94592.00
2023-03-22T01:38:18.606Z,94588.00
2023-03-22T01:42:18.574Z,94592.00
2023-03-22T01:46:18.564Z,94590.00
2023-03-22T01:50:21.440Z,94594.00
2023-03-22T01:54:18.458Z,94598.00
2023-03-22T01:58:18.534Z,94596.00
2023-03-22T02:02:18.571Z,94594.00
2023-03-22T02:06:18.332Z,94590.00
2023-03-22T02:10:18.285Z,94588.00
2023-03-22T02:14:18.255Z,94588.00
2023-03-22T02:18:18.529Z,94588.00
2023-03-22T02:22:18.165Z,94590.00
2023-03-22T02:26:18.138Z,94592.00
2023-03-22T02:30:18.120Z,94594.00
2023-03-22T02:34:18.471Z,94598.00
2023-03-22T02:38:18.083Z,94601.00
2023-03-22T02:42:18.171Z,94601.00
2023-03-22T02:46:18.110Z,94601.00
2023-03-22T02:50:17.964Z,94599.00
2023-03-22T02:54:18.058Z,94594.00
2023-03-22T02:58:17.922Z,94596.00
2023-03-22T03:02:17.875Z,94594.00
2023-03-22T03:06:17.887Z,94588.00
2023-03-22T03:10:17.767Z,94586.00
2023-03-22T03:14:17.833Z,94584.00
2023-03-22T03:18:17.663Z,94586.00
2023-03-22T03:22:17.987Z,94576.00
2023-03-22T03:26:17.725Z,94576.00
2023-03-22T03:30:17.714Z,94574.00
2023-03-22T03:34:18.476Z,94580.00
2023-03-22T03:38:17.563Z,94584.00
2023-03-22T03:42:17.551Z,94582.00
2023-03-22T03:46:17.606Z,94582.00
2023-03-22T03:50:18.001Z,94580.00
2023-03-22T03:54:17.419Z,94580.00
2023-03-22T03:58:18.537Z,94574.00
2023-03-22T04:02:18.038Z,94568.00
2023-03-22T04:06:17.528Z,94566.00
2023-03-22T04:10:17.761Z,94570.00
2023-03-22T04:14:17.884Z,94570.00
2023-03-22T04:18:18.020Z,94574.00
2023-03-22T04:22:18.254Z,94570.00
2023-03-22T04:26:18.411Z,94572.00
2023-03-22T04:30:18.584Z,94572.00
2023-03-22T04:34:18.729Z,94570.00
2023-03-22T04:38:18.815Z,94570.00
2023-03-22T04:42:18.911Z,94572.00
2023-03-22T04:46:18.964Z,94568.00
2023-03-22T04:50:18.959Z,94570.00
2023-03-22T04:54:19.072Z,94572.00
2023-03-22T04:58:19.186Z,94574.00
2023-03-22T05:02:19.240Z,94580.00
2023-03-22T05:06:19.228Z,94584.00
2023-03-22T05:10:19.244Z,94586.00
2023-03-22T05:14:19.332Z,94584.00
2023-03-22T05:18:19.221Z,94586.00
2023-03-22T05:22:19.230Z,94586.00
2023-03-22T05:26:19.200Z,94588.00
2023-03-22T05:30:19.292Z,94590.00
2023-03-22T05:34:19.344Z,94594.00
2023-03-22T05:38:19.504Z,94592.00
2023-03-22T05:42:19.567Z,94594.00
2023-03-22T05:46:20.554Z,94596.00
2023-03-22T05:50:19.982Z,94599.00
2023-03-22T05:54:20.063Z,94603.00
2023-03-22T05:58:20.285Z,94605.00
2023-03-22T06:02:21.063Z,94607.00
2023-03-22T06:06:20.594Z,94605.00
2023-03-22T06:10:20.856Z,94609.00
2023-03-22T06:14:23.039Z,94611.00
2023-03-22T06:18:21.168Z,94615.00
2023-03-22T06:22:21.610Z,94613.00
2023-03-22T06:26:21.474Z,94617.00
2023-03-22T06:30:24.903Z,94623.00
2023-03-22T06:38:40.773Z,94615.00
2023-03-22T06:42:40.859Z,94609.00
2023-03-22T06:46:40.640Z,94609.00
2023-03-22T06:50:43.049Z,94605.00
2023-03-22T06:54:40.772Z,94605.00
2023-03-22T06:58:40.928Z,94601.00
2023-03-22T07:02:40.603Z,94601.00
2023-03-22T07:06:41.507Z,94603.00
2023-03-22T07:10:40.762Z,94601.00
2023-03-22T07:14:40.668Z,94601.00
2023-03-22T07:18:40.537Z,94598.00
2023-03-22T07:22:40.610Z,94603.00
2023-03-22T07:26:40.423Z,94601.00
2023-03-22T07:30:41.352Z,94603.00
2023-03-22T07:34:40.787Z,94596.00
2023-03-22T07:38:41.489Z,94594.00
2023-03-22T07:42:40.505Z,94596.00
2023-03-22T07:46:40.274Z,94594.00
2023-03-22T07:50:41.333Z,94594.00
2023-03-22T07:54:40.465Z,94584.00
2023-03-22T07:58:41.443Z,94580.00
2023-03-22T08:02:40.939Z,94578.00
2023-03-22T08:06:40.743Z,94578.00
2023-03-22T08:10:40.914Z,94574.00
2023-03-22T08:14:41.040Z,94574.00
2023-03-22T08:18:44.424Z,94574.00
2023-03-22T08:22:40.579Z,94572.00
2023-03-22T08:26:40.735Z,94572.00
2023-03-22T08:30:40.938Z,94572.00
2023-03-22T08:34:40.893Z,94568.00
2023-03-22T08:38:52.761Z,94564.00
2023-03-22T08:42:41.152Z,94562.00
2023-03-22T08:46:41.941Z,94556.00
2023-03-22T08:50:40.583Z,94549.00
2023-03-22T08:54:42.011Z,94539.00
2023-03-22T08:58:40.622Z,94529.00
2023-03-22T09:02:41.034Z,94523.00
2023-03-22T09:06:41.579Z,94515.00
2023-03-22T09:10:41.907Z,94511.00
2023-03-22T09:14:40.742Z,94509.00
2023-03-22T09:18:40.708Z,94505.00
2023-03-22T09:22:40.675Z,94498.00
2023-03-22T09:26:44.526Z,94494.00
2023-03-22T09:34:59.923Z,94478.00
2023-03-22T09:38:59.597Z,94472.00
2023-03-22T09:42:59.520Z,94470.00
2023-03-22T09:46:59.480Z,94460.00
2023-03-22T09:50:59.627Z,94457.00
2023-03-22T09:54:59.493Z,94449.00
2023-03-22T09:58:59.354Z,94445.00
2023-03-22T10:02:59.389Z,94439.00
2023-03-22T10:06:59.454Z,94437.00
2023-03-22T10:10:59.290Z,94427.00
2023-03-22T10:14:59.397Z,94421.00
2023-03-22T10:18:59.649Z,94408.00
2023-03-22T10:23:00.420Z,94400.00
2023-03-22T10:27:00.135Z,94398.00
2023-03-22T10:31:07.582Z,94384.00
2023-03-22T10:35:00.108Z,94380.00
2023-03-22T10:39:00.106Z,94378.00
2023-03-22T10:43:01.008Z,94374.00
2023-03-22T10:47:00.426Z,94368.00
2023-03-22T10:51:00.289Z,94365.00
2023-03-22T10:55:04.212Z,94361.00
2023-03-22T10:59:00.293Z,94351.00
2023-03-22T11:03:00.335Z,94343.00
2023-03-22T11:07:00.220Z,94337.00
2023-03-22T11:11:00.211Z,94331.00
2023-03-22T11:15:00.165Z,94325.00
2023-03-22T11:19:00.140Z,94321.00
2023-03-22T11:23:00.172Z,94321.00
2023-03-22T11:27:00.040Z,94314.00
2023-03-22T11:31:00.365Z,94304.00
2023-03-22T11:35:00.428Z,94300.00
2023-03-22T11:38:59.989Z,94290.00
2023-03-22T11:42:59.978Z,94286.00
2023-03-22T11:46:59.936Z,94272.00
2023-03-22T11:50:59.912Z,94267.00
2023-03-22T11:54:59.881Z,94259.00
2023-03-22T11:58:59.808Z,94261.00
2023-03-22T12:02:59.969Z,94261.00
2023-03-22T12:07:00.149Z,94247.00
2023-03-22T12:11:00.106Z,94245.00
2023-03-22T12:15:01.011Z,94235.00
2023-03-22T12:19:02.366Z,94227.00
2023-03-22T12:23:00.245Z,94222.00
2023-03-22T12:27:00.340Z,94212.00
2023-03-22T12:31:00.463Z,94206.00
2023-03-22T12:35:18.416Z,94202.00
2023-03-22T12:39:02.545Z,94192.00
2023-03-22T12:43:00.593Z,94184.00
2023-03-22T12:47:00.623Z,94175.00
2023-03-22T12:51:00.666Z,94173.00
2023-03-22T12:55:00.713Z,94167.00
2023-03-22T12:59:00.610Z,94157.00
2023-03-22T13:03:00.704Z,94153.00
2023-03-22T13:07:00.634Z,94149.00
2023-03-22T13:11:00.525Z,94143.00
2023-03-22T13:15:00.459Z,94141.00
2023-03-22T13:19:00.501Z,94128.00
2023-03-22T13:23:00.473Z,94120.00
2023-03-22T13:27:04.364Z,94116.00
2023-03-22T13:31:00.350Z,94108.00
2023-03-22T13:35:00.357Z,94102.00
2023-03-22T13:39:00.535Z,94100.00
2023-03-22T13:43:00.220Z,94092.00
2023-03-22T13:47:00.275Z,94083.00
2023-03-22T13:51:00.314Z,94077.00
2023-03-22T13:55:00.237Z,94069.00
2023-03-22T13:59:00.256Z,94065.00
2023-03-22T14:03:00.277Z,94069.00
2023-03-22T14:07:00.153Z,94063.00
2023-03-22T14:11:00.070Z,94061.00
2023-03-22T14:15:00.044Z,94053.00
2023-03-22T14:19:00.027Z,94051.00
2023-03-22T14:48:01.529Z,94028.00
2023-03-22T14:52:04.010Z,94028.00
2023-03-22T14:56:01.457Z,94024.00
2023-03-22T15:00:02.258Z,94024.00
2023-03-22T15:04:01.556Z,94018.00
2023-03-22T15:08:01.441Z,94014.00
2023-03-22T15:12:02.270Z,94008.00
2023-03-22T15:16:01.294Z,94004.00
2023-03-22T15:20:01.260Z,94002.00
2023-03-22T15:24:01.194Z,94002.00
2023-03-22T15:28:01.182Z,94004.00
2023-03-22T15:32:01.097Z,94008.00
2023-03-22T15:36:02.222Z,94008.00
2023-03-22T15:40:01.230Z,94002.00
2023-03-22T15:44:01.363Z,94004.00
2023-03-22T15:48:01.743Z,94006.00
2023-03-22T15:52:01.675Z,94008.00
2023-03-22T15:56:01.705Z,94008.00
2023-03-22T16:00:01.802Z,94014.00
2023-03-22T16:04:01.941Z,94018.00
2023-03-22T16:08:02.053Z,94020.00
2023-03-22T16:12:02.182Z,94024.00
2023-03-22T16:16:02.329Z,94026.00
2023-03-22T16:20:02.559Z,94032.00
2023-03-22T16:24:02.616Z,94034.00
2023-03-22T16:28:02.754Z,94036.00
2023-03-22T16:32:02.869Z,94041.00
2023-03-22T16:36:02.985Z,94041.00
2023-03-22T16:40:03.124Z,94043.00
2023-03-22T16:44:03.219Z,94049.00
2023-03-22T16:48:03.340Z,94055.00
2023-03-22T16:52:03.447Z,94055.00
2023-03-22T16:56:03.487Z,94067.00
2023-03-22T17:00:03.618Z,94067.00
2023-03-22T17:04:03.708Z,94077.00
2023-03-22T17:08:03.770Z,94083.00
2023-03-22T17:12:03.921Z,94088.00
2023-03-22T17:16:04.085Z,94094.00
2023-03-22T17:20:04.725Z,94094.00
2023-03-22T17:24:04.271Z,94100.00
2023-03-22T17:28:04.380Z,94106.00
2023-03-22T17:32:10.012Z,94112.00
2023-03-22T17:36:05.568Z,94114.00
2023-03-22T17:44:04.434Z,94130.00
2023-03-22T17:48:04.404Z,94141.00
2023-03-22T17:52:04.385Z,94145.00
2023-03-22T17:56:44.094Z,94155.00
2023-03-22T18:00:05.261Z,94169.00
2023-03-22T18:04:04.242Z,94175.00
2023-03-22T18:08:26.315Z,94180.00
2023-03-22T18:12:05.795Z,94190.00
2023-03-22T18:16:04.374Z,94198.00
2023-03-22T18:20:14.883Z,94204.00
2023-03-22T18:24:05.285Z,94208.00
2023-03-22T18:28:04.245Z,94220.00
2023-03-22T18:36:05.333Z,94227.00
2023-03-22T18:40:31.226Z,94239.00
2023-03-22T18:44:05.234Z,94239.00
2023-03-22T18:48:04.211Z,94247.00
2023-03-22T18:56:06.847Z,94259.00
2023-03-22T19:00:04.317Z,94265.00
2023-03-22T19:04:04.293Z,94265.00
2023-03-22T19:08:16.258Z,94263.00
2023-03-22T19:12:05.264Z,94265.00
2023-03-22T19:16:04.331Z,94271.00
2023-03-22T19:20:04.290Z,94272.00
2023-03-22T19:24:04.583Z,94274.00
2023-03-22T19:28:06.662Z,94272.00
2023-03-22T19:32:04.932Z,94272.00
2023-03-22T19:36:05.166Z,94278.00
2023-03-22T19:41:13.892Z,94280.00
2023-03-22T19:44:06.326Z,94278.00
2023-03-22T19:48:05.242Z,94278.00
2023-03-22T19:52:06.330Z,94276.00
2023-03-22T19:56:05.774Z,94276.00
2023-03-22T20:00:43.913Z,94276.00
2023-03-22T20:04:06.757Z,94278.00
2023-03-22T20:08:06.319Z,94282.00
2023-03-22T20:12:05.780Z,94282.00
2023-03-22T20:16:05.959Z,94282.00
2023-03-22T20:20:06.239Z,94290.00
2023-03-22T20:24:06.404Z,94296.00
2023-03-22T20:28:06.641Z,94302.00
2023-03-22T20:32:06.822Z,94306.00
2023-03-22T20:36:07.017Z,94310.00
2023-03-22T20:40:07.227Z,94312.00
2023-03-22T20:44:07.459Z,94316.00
2023-03-22T20:48:07.641Z,94318.00
2023-03-22T20:52:07.852Z,94319.00
2023-03-22T20:56:07.827Z,94321.00
2023-03-22T21:00:07.802Z,94327.00
2023-03-22T21:04:07.734Z,94327.00
2023-03-22T21:08:07.740Z,94329.00
2023-03-22T21:12:07.855Z,94335.00
2023-03-22T21:16:07.643Z,94341.00
2023-03-22T21:20:07.574Z,94341.00
2023-03-22T21:24:07.539Z,94347.00
2023-03-22T21:28:07.669Z,94353.00
2023-03-22T21:32:07.496Z,94359.00
2023-03-22T21:36:07.541Z,94353.00
2023-03-22T21:40:07.482Z,94355.00
2023-03-22T21:44:07.773Z,94351.00
2023-03-22T21:48:07.825Z,94357.00
2023-03-22T21:52:08.019Z,94357.00
2023-03-22T21:56:08.208Z,94359.00
2023-03-22T22:00:08.552Z,94357.00
2023-03-22T22:04:08.864Z,94357.00
2023-03-22T22:08:08.730Z,94365.00
2023-03-22T22:12:08.926Z,94366.00
2023-03-22T22:16:09.894Z,94368.00
2023-03-22T22:20:09.145Z,94374.00
2023-03-22T22:24:09.084Z,94378.00
2023-03-22T22:28:09.433Z,94376.00
2023-03-22T22:32:09.065Z,94376.00
2023-03-22T22:36:09.011Z,94376.00
2023-03-22T22:40:09.080Z,94374.00
2023-03-22T22:44:08.908Z,94372.00
2023-03-22T22:48:08.884Z,94370.00
2023-03-22T22:52:08.846Z,94370.00
2023-03-22T22:56:08.910Z,94366.00
2023-03-22T23:00:08.850Z,94366.00
2023-03-22T23:04:08.864Z,94368.00
2023-03-22T23:08:08.816Z,94368.00
2023-03-22T23:12:08.749Z,94363.00
2023-03-22T23:16:08.762Z,94363.00
2023-03-22T23:20:08.693Z,94359.00
2023-03-22T23:24:08.662Z,94361.00
2023-03-22T23:28:08.634Z,94363.00
2023-03-22T23:32:08.613Z,94366.00
2023-03-22T23:36:08.693Z,94365.00
2023-03-22T23:40:08.556Z,94363.00
2023-03-22T23:44:08.537Z,94366.00
2023-03-22T23:48:08.542Z,94366.00
2023-03-22T23:52:08.467Z,94366.00
2023-03-22T23:56:08.444Z,94370.00
